sensor_id;sensor_type;location;lat;lon;timestamp;P1;durP1;ratioP1;P2;durP2;ratioP2
2896;SDS011;1458;49.728;9.228;2023-04-25T00:01:57;0.30;;;0.30;;
2896;SDS011;1458;49.728;9.228;2023-04-25T00:04:25;0.30;;;0.30;;
2896;SDS011;1458;49.728;9.228;2023-04-25T00:06:54;0.30;;;0.30;;
2896;SDS011;1458;49.728;9.228;2023-04-25T00:09:22;0.30;;;0.30;;
2896;SDS011;1458;49.728;9.228;2023-04-25T00:11:50;0.30;;;0.30;;
2896;SDS011;1458;49.728;9.228;2023-04-25T00:14:17;0.37;;;0.37;;
2896;SDS011;1458;49.728;9.228;2023-04-25T00:16:47;0.30;;;0.30;;
2896;SDS011;1458;49.728;9.228;2023-04-25T00:19:16;0.30;;;0.30;;
2896;SDS011;1458;49.728;9.228;2023-04-25T00:21:44;0.30;;;0.30;;
2896;SDS011;1458;49.728;9.228;2023-04-25T00:24:12;0.30;;;0.30;;
2896;SDS011;1458;49.728;9.228;2023-04-25T00:26:40;0.30;;;0.30;;
2896;SDS011;1458;49.728;9.228;2023-04-25T00:29:08;0.30;;;0.30;;
2896;SDS011;1458;49.728;9.228;2023-04-25T00:31:35;0.30;;;0.30;;
2896;SDS011;1458;49.728;9.228;2023-04-25T00:34:05;0.30;;;0.30;;
2896;SDS011;1458;49.728;9.228;2023-04-25T00:36:34;0.30;;;0.30;;
2896;SDS011;1458;49.728;9.228;2023-04-25T00:39:02;0.30;;;0.30;;
2896;SDS011;1458;49.728;9.228;2023-04-25T00:41:31;0.30;;;0.30;;
2896;SDS011;1458;49.728;9.228;2023-04-25T00:43:59;0.30;;;0.30;;
2896;SDS011;1458;49.728;9.228;2023-04-25T00:46:29;0.30;;;0.30;;
2896;SDS011;1458;49.728;9.228;2023-04-25T00:48:58;0.30;;;0.30;;
2896;SDS011;1458;49.728;9.228;2023-04-25T00:51:27;0.30;;;0.30;;
2896;SDS011;1458;49.728;9.228;2023-04-25T00:53:55;0.20;;;0.20;;
2896;SDS011;1458;49.728;9.228;2023-04-25T00:56:23;0.30;;;0.30;;
2896;SDS011;1458;49.728;9.228;2023-04-25T00:58:51;0.30;;;0.30;;
2896;SDS011;1458;49.728;9.228;2023-04-25T01:01:22;0.30;;;0.30;;
2896;SDS011;1458;49.728;9.228;2023-04-25T01:03:53;0.30;;;0.30;;
2896;SDS011;1458;49.728;9.228;2023-04-25T01:06:21;0.30;;;0.30;;
2896;SDS011;1458;49.728;9.228;2023-04-25T01:08:50;0.30;;;0.30;;
2896;SDS011;1458;49.728;9.228;2023-04-25T01:11:18;0.30;;;0.30;;
2896;SDS011;1458;49.728;9.228;2023-04-25T01:13:46;0.30;;;0.30;;
2896;SDS011;1458;49.728;9.228;2023-04-25T01:16:14;0.30;;;0.30;;
2896;SDS011;1458;49.728;9.228;2023-04-25T01:18:45;0.30;;;0.30;;
2896;SDS011;1458;49.728;9.228;2023-04-25T01:21:15;0.30;;;0.30;;
2896;SDS011;1458;49.728;9.228;2023-04-25T01:23:45;0.30;;;0.30;;
2896;SDS011;1458;49.728;9.228;2023-04-25T01:26:14;0.30;;;0.30;;
2896;SDS011;1458;49.728;9.228;2023-04-25T01:28:43;0.30;;;0.30;;
2896;SDS011;1458;49.728;9.228;2023-04-25T01:31:11;0.30;;;0.30;;
2896;SDS011;1458;49.728;9.228;2023-04-25T01:33:43;0.30;;;0.30;;
2896;SDS011;1458;49.728;9.228;2023-04-25T01:36:11;0.30;;;0.30;;
2896;SDS011;1458;49.728;9.228;2023-04-25T01:38:43;0.30;;;0.30;;
2896;SDS011;1458;49.728;9.228;2023-04-25T01:41:12;0.30;;;0.30;;
2896;SDS011;1458;49.728;9.228;2023-04-25T01:43:43;0.30;;;0.30;;
2896;SDS011;1458;49.728;9.228;2023-04-25T01:46:17;0.30;;;0.30;;
2896;SDS011;1458;49.728;9.228;2023-04-25T01:48:47;0.30;;;0.30;;
2896;SDS011;1458;49.728;9.228;2023-04-25T01:51:18;0.30;;;0.30;;
2896;SDS011;1458;49.728;9.228;2023-04-25T01:53:51;0.30;;;0.30;;
2896;SDS011;1458;49.728;9.228;2023-04-25T01:56:22;0.30;;;0.30;;
2896;SDS011;1458;49.728;9.228;2023-04-25T01:58:50;0.30;;;0.30;;
2896;SDS011;1458;49.728;9.228;2023-04-25T02:01:22;0.30;;;0.30;;
2896;SDS011;1458;49.728;9.228;2023-04-25T02:04:11;0.30;;;0.30;;
2896;SDS011;1458;49.728;9.228;2023-04-25T02:06:41;0.40;;;0.40;;
2896;SDS011;1458;49.728;9.228;2023-04-25T02:09:10;0.30;;;0.30;;
2896;SDS011;1458;49.728;9.228;2023-04-25T02:11:47;0.30;;;0.30;;
2896;SDS011;1458;49.728;9.228;2023-04-25T02:14:30;0.30;;;0.30;;
2896;SDS011;1458;49.728;9.228;2023-04-25T02:17:25;0.30;;;0.30;;
2896;SDS011;1458;49.728;9.228;2023-04-25T02:20:00;0.30;;;0.30;;
2896;SDS011;1458;49.728;9.228;2023-04-25T02:22:34;0.30;;;0.30;;
2896;SDS011;1458;49.728;9.228;2023-04-25T02:25:08;0.30;;;0.30;;
2896;SDS011;1458;49.728;9.228;2023-04-25T02:27:43;0.23;;;0.23;;
2896;SDS011;1458;49.728;9.228;2023-04-25T02:30:18;0.30;;;0.30;;
2896;SDS011;1458;49.728;9.228;2023-04-25T02:33:04;0.30;;;0.30;;
2896;SDS011;1458;49.728;9.228;2023-04-25T02:35:45;0.30;;;0.30;;
2896;SDS011;1458;49.728;9.228;2023-04-25T02:38:16;0.30;;;0.30;;
2896;SDS011;1458;49.728;9.228;2023-04-25T02:40:44;0.30;;;0.30;;
2896;SDS011;1458;49.728;9.228;2023-04-25T02:43:14;0.30;;;0.30;;
2896;SDS011;1458;49.728;9.228;2023-04-25T02:45:57;0.30;;;0.30;;
2896;SDS011;1458;49.728;9.228;2023-04-25T02:48:55;0.30;;;0.30;;
2896;SDS011;1458;49.728;9.228;2023-04-25T02:51:26;0.30;;;0.30;;
2896;SDS011;1458;49.728;9.228;2023-04-25T02:54:00;0.20;;;0.20;;
2896;SDS011;1458;49.728;9.228;2023-04-25T02:56:37;0.30;;;0.30;;
2896;SDS011;1458;49.728;9.228;2023-04-25T02:59:21;0.30;;;0.30;;
2896;SDS011;1458;49.728;9.228;2023-04-25T03:01:52;0.30;;;0.30;;
2896;SDS011;1458;49.728;9.228;2023-04-25T03:04:25;0.30;;;0.30;;
2896;SDS011;1458;49.728;9.228;2023-04-25T03:06:57;0.30;;;0.30;;
2896;SDS011;1458;49.728;9.228;2023-04-25T03:09:33;0.30;;;0.30;;
2896;SDS011;1458;49.728;9.228;2023-04-25T03:12:01;0.30;;;0.30;;
2896;SDS011;1458;49.728;9.228;2023-04-25T03:14:33;0.30;;;0.30;;
2896;SDS011;1458;49.728;9.228;2023-04-25T03:17:30;0.30;;;0.30;;
2896;SDS011;1458;49.728;9.228;2023-04-25T03:20:06;0.30;;;0.30;;
2896;SDS011;1458;49.728;9.228;2023-04-25T03:22:38;0.30;;;0.30;;
2896;SDS011;1458;49.728;9.228;2023-04-25T03:25:09;0.30;;;0.30;;
2896;SDS011;1458;49.728;9.228;2023-04-25T03:27:40;0.40;;;0.40;;
2896;SDS011;1458;49.728;9.228;2023-04-25T03:30:16;0.30;;;0.30;;
2896;SDS011;1458;49.728;9.228;2023-04-25T03:32:47;0.30;;;0.30;;
2896;SDS011;1458;49.728;9.228;2023-04-25T03:35:16;0.20;;;0.20;;
2896;SDS011;1458;49.728;9.228;2023-04-25T03:37:46;0.30;;;0.30;;
2896;SDS011;1458;49.728;9.228;2023-04-25T03:40:26;0.30;;;0.30;;
2896;SDS011;1458;49.728;9.228;2023-04-25T03:43:40;0.30;;;0.30;;
2896;SDS011;1458;49.728;9.228;2023-04-25T03:46:16;0.30;;;0.30;;
2896;SDS011;1458;49.728;9.228;2023-04-25T03:48:48;0.30;;;0.30;;
2896;SDS011;1458;49.728;9.228;2023-04-25T03:51:25;0.30;;;0.30;;
2896;SDS011;1458;49.728;9.228;2023-04-25T03:53:58;0.30;;;0.30;;
2896;SDS011;1458;49.728;9.228;2023-04-25T03:56:31;0.30;;;0.30;;
2896;SDS011;1458;49.728;9.228;2023-04-25T03:59:20;0.30;;;0.30;;
2896;SDS011;1458;49.728;9.228;2023-04-25T04:02:02;0.40;;;0.40;;
2896;SDS011;1458;49.728;9.228;2023-04-25T04:05:19;0.30;;;0.30;;
2896;SDS011;1458;49.728;9.228;2023-04-25T04:07:57;0.30;;;0.30;;
2896;SDS011;1458;49.728;9.228;2023-04-25T04:10:28;0.30;;;0.30;;
2896;SDS011;1458;49.728;9.228;2023-04-25T04:13:13;0.30;;;0.30;;
2896;SDS011;1458;49.728;9.228;2023-04-25T04:15:48;0.30;;;0.30;;
2896;SDS011;1458;49.728;9.228;2023-04-25T04:18:24;0.30;;;0.30;;
2896;SDS011;1458;49.728;9.228;2023-04-25T04:21:10;0.20;;;0.20;;
2896;SDS011;1458;49.728;9.228;2023-04-25T04:23:49;0.30;;;0.30;;
2896;SDS011;1458;49.728;9.228;2023-04-25T04:26:25;0.30;;;0.30;;
2896;SDS011;1458;49.728;9.228;2023-04-25T04:29:12;0.30;;;0.30;;
2896;SDS011;1458;49.728;9.228;2023-04-25T04:31:58;0.30;;;0.30;;
2896;SDS011;1458;49.728;9.228;2023-04-25T04:34:33;0.30;;;0.30;;
2896;SDS011;1458;49.728;9.228;2023-04-25T04:37:17;0.30;;;0.30;;
2896;SDS011;1458;49.728;9.228;2023-04-25T04:40:45;0.30;;;0.30;;
2896;SDS011;1458;49.728;9.228;2023-04-25T04:44:17;0.30;;;0.30;;
2896;SDS011;1458;49.728;9.228;2023-04-25T04:47:34;0.20;;;0.20;;
2896;SDS011;1458;49.728;9.228;2023-04-25T04:50:24;0.30;;;0.30;;
2896;SDS011;1458;49.728;9.228;2023-04-25T04:53:05;0.30;;;0.30;;
2896;SDS011;1458;49.728;9.228;2023-04-25T04:55:44;0.30;;;0.30;;
2896;SDS011;1458;49.728;9.228;2023-04-25T04:58:30;0.30;;;0.30;;
2896;SDS011;1458;49.728;9.228;2023-04-25T05:01:20;0.30;;;0.30;;
2896;SDS011;1458;49.728;9.228;2023-04-25T05:04:04;0.30;;;0.30;;
2896;SDS011;1458;49.728;9.228;2023-04-25T05:06:49;0.30;;;0.30;;
2896;SDS011;1458;49.728;9.228;2023-04-25T05:09:38;0.30;;;0.30;;
2896;SDS011;1458;49.728;9.228;2023-04-25T05:12:21;0.30;;;0.30;;
2896;SDS011;1458;49.728;9.228;2023-04-25T05:14:59;0.30;;;0.30;;
2896;SDS011;1458;49.728;9.228;2023-04-25T05:17:49;0.30;;;0.30;;
2896;SDS011;1458;49.728;9.228;2023-04-25T05:20:30;0.30;;;0.30;;
2896;SDS011;1458;49.728;9.228;2023-04-25T05:23:16;0.30;;;0.30;;
2896;SDS011;1458;49.728;9.228;2023-04-25T05:26:03;0.30;;;0.30;;
2896;SDS011;1458;49.728;9.228;2023-04-25T05:28:56;0.30;;;0.30;;
2896;SDS011;1458;49.728;9.228;2023-04-25T05:31:57;0.20;;;0.20;;
2896;SDS011;1458;49.728;9.228;2023-04-25T05:34:27;0.30;;;0.30;;
2896;SDS011;1458;49.728;9.228;2023-04-25T05:36:58;0.30;;;0.30;;
2896;SDS011;1458;49.728;9.228;2023-04-25T05:39:31;0.40;;;0.40;;
2896;SDS011;1458;49.728;9.228;2023-04-25T05:42:08;0.30;;;0.30;;
2896;SDS011;1458;49.728;9.228;2023-04-25T05:44:55;0.40;;;0.40;;
2896;SDS011;1458;49.728;9.228;2023-04-25T05:47:46;0.30;;;0.30;;
2896;SDS011;1458;49.728;9.228;2023-04-25T05:50:21;0.30;;;0.30;;
2896;SDS011;1458;49.728;9.228;2023-04-25T05:52:55;0.30;;;0.30;;
2896;SDS011;1458;49.728;9.228;2023-04-25T05:55:38;0.40;;;0.40;;
2896;SDS011;1458;49.728;9.228;2023-04-25T05:58:42;0.30;;;0.30;;
2896;SDS011;1458;49.728;9.228;2023-04-25T06:01:15;0.30;;;0.30;;
2896;SDS011;1458;49.728;9.228;2023-04-25T06:03:45;0.30;;;0.30;;
2896;SDS011;1458;49.728;9.228;2023-04-25T06:09:44;0.40;;;0.40;;
2896;SDS011;1458;49.728;9.228;2023-04-25T06:12:17;0.40;;;0.40;;
2896;SDS011;1458;49.728;9.228;2023-04-25T06:14:56;0.40;;;0.40;;
2896;SDS011;1458;49.728;9.228;2023-04-25T06:17:26;0.40;;;0.40;;
2896;SDS011;1458;49.728;9.228;2023-04-25T06:19:55;0.40;;;0.40;;
2896;SDS011;1458;49.728;9.228;2023-04-25T06:22:29;0.40;;;0.40;;
2896;SDS011;1458;49.728;9.228;2023-04-25T06:24:58;0.40;;;0.40;;
2896;SDS011;1458;49.728;9.228;2023-04-25T06:27:34;0.50;;;0.50;;
2896;SDS011;1458;49.728;9.228;2023-04-25T06:30:03;0.50;;;0.50;;
2896;SDS011;1458;49.728;9.228;2023-04-25T06:32:40;0.50;;;0.50;;
2896;SDS011;1458;49.728;9.228;2023-04-25T06:35:09;0.63;;;0.63;;
2896;SDS011;1458;49.728;9.228;2023-04-25T06:37:41;0.60;;;0.60;;
2896;SDS011;1458;49.728;9.228;2023-04-25T06:40:12;0.70;;;0.70;;
2896;SDS011;1458;49.728;9.228;2023-04-25T06:42:46;0.80;;;0.80;;
2896;SDS011;1458;49.728;9.228;2023-04-25T06:45:45;0.60;;;0.60;;
2896;SDS011;1458;49.728;9.228;2023-04-25T06:48:17;0.70;;;0.70;;
2896;SDS011;1458;49.728;9.228;2023-04-25T06:50:48;0.70;;;0.70;;
2896;SDS011;1458;49.728;9.228;2023-04-25T06:53:21;0.80;;;0.80;;
2896;SDS011;1458;49.728;9.228;2023-04-25T06:55:56;0.60;;;0.60;;
2896;SDS011;1458;49.728;9.228;2023-04-25T06:58:29;0.60;;;0.60;;
2896;SDS011;1458;49.728;9.228;2023-04-25T07:01:11;0.70;;;0.70;;
2896;SDS011;1458;49.728;9.228;2023-04-25T07:03:54;0.90;;;0.90;;
2896;SDS011;1458;49.728;9.228;2023-04-25T07:06:23;0.80;;;0.80;;
2896;SDS011;1458;49.728;9.228;2023-04-25T07:08:55;0.77;;;0.77;;
2896;SDS011;1458;49.728;9.228;2023-04-25T07:11:23;0.80;;;0.80;;
2896;SDS011;1458;49.728;9.228;2023-04-25T07:13:55;0.90;;;0.90;;
2896;SDS011;1458;49.728;9.228;2023-04-25T07:16:24;1.00;;;1.00;;
2896;SDS011;1458;49.728;9.228;2023-04-25T07:18:52;0.70;;;0.70;;
2896;SDS011;1458;49.728;9.228;2023-04-25T07:21:20;0.80;;;0.80;;
2896;SDS011;1458;49.728;9.228;2023-04-25T07:23:55;0.70;;;0.70;;
2896;SDS011;1458;49.728;9.228;2023-04-25T07:26:29;0.90;;;0.90;;
2896;SDS011;1458;49.728;9.228;2023-04-25T07:29:17;0.90;;;0.90;;
2896;SDS011;1458;49.728;9.228;2023-04-25T07:31:47;1.00;;;1.00;;
2896;SDS011;1458;49.728;9.228;2023-04-25T07:34:20;1.10;;;1.10;;
2896;SDS011;1458;49.728;9.228;2023-04-25T07:36:54;1.10;;;1.10;;
2896;SDS011;1458;49.728;9.228;2023-04-25T07:39:27;1.00;;;1.00;;
2896;SDS011;1458;49.728;9.228;2023-04-25T07:41:55;1.10;;;1.10;;
2896;SDS011;1458;49.728;9.228;2023-04-25T07:44:28;1.50;;;1.50;;
2896;SDS011;1458;49.728;9.228;2023-04-25T07:46:57;1.10;;;1.10;;
2896;SDS011;1458;49.728;9.228;2023-04-25T07:49:31;1.10;;;1.10;;
2896;SDS011;1458;49.728;9.228;2023-04-25T07:52:10;1.33;;;1.33;;
2896;SDS011;1458;49.728;9.228;2023-04-25T07:54:46;1.80;;;1.80;;
2896;SDS011;1458;49.728;9.228;2023-04-25T07:57:19;1.90;;;1.90;;
2896;SDS011;1458;49.728;9.228;2023-04-25T07:59:52;2.10;;;2.10;;
2896;SDS011;1458;49.728;9.228;2023-04-25T08:02:21;2.30;;;2.30;;
2896;SDS011;1458;49.728;9.228;2023-04-25T08:04:52;2.50;;;2.50;;
2896;SDS011;1458;49.728;9.228;2023-04-25T08:07:20;3.43;;;3.43;;
2896;SDS011;1458;49.728;9.228;2023-04-25T08:09:56;4.10;;;4.10;;
2896;SDS011;1458;49.728;9.228;2023-04-25T08:12:32;3.43;;;3.43;;
2896;SDS011;1458;49.728;9.228;2023-04-25T08:15:09;4.10;;;4.10;;
2896;SDS011;1458;49.728;9.228;2023-04-25T08:17:41;3.70;;;3.70;;
2896;SDS011;1458;49.728;9.228;2023-04-25T08:20:11;4.10;;;4.10;;
2896;SDS011;1458;49.728;9.228;2023-04-25T08:22:42;5.40;;;5.40;;
2896;SDS011;1458;49.728;9.228;2023-04-25T08:25:26;7.10;;;7.00;;
2896;SDS011;1458;49.728;9.228;2023-04-25T08:27:54;8.30;;;8.20;;
2896;SDS011;1458;49.728;9.228;2023-04-25T08:30:25;8.10;;;8.00;;
2896;SDS011;1458;49.728;9.228;2023-04-25T08:32:53;8.50;;;8.40;;
2896;SDS011;1458;49.728;9.228;2023-04-25T08:35:56;8.10;;;8.00;;
2896;SDS011;1458;49.728;9.228;2023-04-25T08:38:26;9.00;;;8.80;;
2896;SDS011;1458;49.728;9.228;2023-04-25T08:40:55;9.67;;;9.47;;
2896;SDS011;1458;49.728;9.228;2023-04-25T08:43:26;9.10;;;8.90;;
2896;SDS011;1458;49.728;9.228;2023-04-25T08:45:57;9.77;;;9.57;;
2896;SDS011;1458;49.728;9.228;2023-04-25T08:48:38;9.90;;;9.70;;
2896;SDS011;1458;49.728;9.228;2023-04-25T08:51:09;10.00;;;9.80;;
2896;SDS011;1458;49.728;9.228;2023-04-25T08:53:42;9.57;;;9.37;;
2896;SDS011;1458;49.728;9.228;2023-04-25T08:56:14;9.60;;;9.40;;
2896;SDS011;1458;49.728;9.228;2023-04-25T08:58:47;8.70;;;8.60;;
2896;SDS011;1458;49.728;9.228;2023-04-25T09:01:16;9.30;;;9.10;;
2896;SDS011;1458;49.728;9.228;2023-04-25T09:03:49;9.70;;;9.50;;
2896;SDS011;1458;49.728;9.228;2023-04-25T09:06:17;10.20;;;10.00;;
2896;SDS011;1458;49.728;9.228;2023-04-25T09:08:51;10.20;;;10.00;;
2896;SDS011;1458;49.728;9.228;2023-04-25T09:11:20;10.50;;;10.30;;
2896;SDS011;1458;49.728;9.228;2023-04-25T09:13:48;10.30;;;10.10;;
2896;SDS011;1458;49.728;9.228;2023-04-25T09:16:36;10.00;;;9.80;;
2896;SDS011;1458;49.728;9.228;2023-04-25T09:20:04;9.93;;;9.73;;
2896;SDS011;1458;49.728;9.228;2023-04-25T09:22:35;10.20;;;10.00;;
2896;SDS011;1458;49.728;9.228;2023-04-25T09:25:04;9.90;;;9.70;;
2896;SDS011;1458;49.728;9.228;2023-04-25T09:27:37;9.30;;;9.10;;
2896;SDS011;1458;49.728;9.228;2023-04-25T09:30:28;9.13;;;8.93;;
2896;SDS011;1458;49.728;9.228;2023-04-25T09:33:06;9.00;;;8.80;;
2896;SDS011;1458;49.728;9.228;2023-04-25T09:35:36;8.60;;;8.50;;
2896;SDS011;1458;49.728;9.228;2023-04-25T09:38:08;8.70;;;8.60;;
2896;SDS011;1458;49.728;9.228;2023-04-25T09:40:55;9.40;;;9.20;;
2896;SDS011;1458;49.728;9.228;2023-04-25T09:43:36;9.77;;;9.57;;
2896;SDS011;1458;49.728;9.228;2023-04-25T09:46:07;9.40;;;9.20;;
2896;SDS011;1458;49.728;9.228;2023-04-25T09:48:39;10.00;;;9.80;;
2896;SDS011;1458;49.728;9.228;2023-04-25T09:51:09;10.00;;;9.80;;
2896;SDS011;1458;49.728;9.228;2023-04-25T09:53:41;10.60;;;10.30;;
2896;SDS011;1458;49.728;9.228;2023-04-25T09:56:30;9.97;;;9.77;;
2896;SDS011;1458;49.728;9.228;2023-04-25T09:59:06;10.50;;;10.20;;
2896;SDS011;1458;49.728;9.228;2023-04-25T10:01:36;9.90;;;9.70;;
2896;SDS011;1458;49.728;9.228;2023-04-25T10:04:13;10.00;;;9.80;;
2896;SDS011;1458;49.728;9.228;2023-04-25T10:06:59;10.33;;;10.13;;
2896;SDS011;1458;49.728;9.228;2023-04-25T10:09:28;10.00;;;9.80;;
2896;SDS011;1458;49.728;9.228;2023-04-25T10:11:59;10.07;;;9.87;;
2896;SDS011;1458;49.728;9.228;2023-04-25T10:14:31;10.50;;;10.20;;
2896;SDS011;1458;49.728;9.228;2023-04-25T10:16:59;10.30;;;10.10;;
2896;SDS011;1458;49.728;9.228;2023-04-25T10:19:27;10.60;;;10.30;;
2896;SDS011;1458;49.728;9.228;2023-04-25T10:21:58;11.00;;;10.70;;
2896;SDS011;1458;49.728;9.228;2023-04-25T10:24:34;10.70;;;10.40;;
2896;SDS011;1458;49.728;9.228;2023-04-25T10:27:05;11.00;;;10.70;;
2896;SDS011;1458;49.728;9.228;2023-04-25T10:29:35;11.20;;;10.90;;
2896;SDS011;1458;49.728;9.228;2023-04-25T10:32:03;10.90;;;10.60;;
2896;SDS011;1458;49.728;9.228;2023-04-25T10:34:38;11.00;;;10.70;;
2896;SDS011;1458;49.728;9.228;2023-04-25T10:37:11;11.17;;;10.87;;
2896;SDS011;1458;49.728;9.228;2023-04-25T10:39:40;9.90;;;9.70;;
2896;SDS011;1458;49.728;9.228;2023-04-25T10:42:11;10.67;;;10.37;;
2896;SDS011;1458;49.728;9.228;2023-04-25T10:44:41;10.50;;;10.20;;
2896;SDS011;1458;49.728;9.228;2023-04-25T10:47:34;10.50;;;10.23;;
2896;SDS011;1458;49.728;9.228;2023-04-25T10:50:04;10.10;;;9.90;;
2896;SDS011;1458;49.728;9.228;2023-04-25T10:52:33;9.60;;;9.40;;
2896;SDS011;1458;49.728;9.228;2023-04-25T10:55:02;9.43;;;9.23;;
2896;SDS011;1458;49.728;9.228;2023-04-25T10:57:38;9.53;;;9.33;;
2896;SDS011;1458;49.728;9.228;2023-04-25T11:00:11;9.07;;;8.87;;
2896;SDS011;1458;49.728;9.228;2023-04-25T11:02:41;7.37;;;7.27;;
2896;SDS011;1458;49.728;9.228;2023-04-25T11:05:19;7.10;;;7.00;;
2896;SDS011;1458;49.728;9.228;2023-04-25T11:07:52;7.60;;;7.50;;
2896;SDS011;1458;49.728;9.228;2023-04-25T11:10:24;8.57;;;8.47;;
2896;SDS011;1458;49.728;9.228;2023-04-25T11:12:53;8.40;;;8.30;;
2896;SDS011;1458;49.728;9.228;2023-04-25T11:15:23;9.00;;;8.80;;
2896;SDS011;1458;49.728;9.228;2023-04-25T11:17:50;8.80;;;8.60;;
2896;SDS011;1458;49.728;9.228;2023-04-25T11:20:18;8.87;;;8.67;;
2896;SDS011;1458;49.728;9.228;2023-04-25T11:22:46;9.00;;;8.80;;
2896;SDS011;1458;49.728;9.228;2023-04-25T11:25:15;9.20;;;9.00;;
2896;SDS011;1458;49.728;9.228;2023-04-25T11:27:49;8.80;;;8.60;;
2896;SDS011;1458;49.728;9.228;2023-04-25T11:30:17;8.90;;;8.70;;
2896;SDS011;1458;49.728;9.228;2023-04-25T11:32:48;8.40;;;8.30;;
2896;SDS011;1458;49.728;9.228;2023-04-25T11:35:17;9.07;;;8.87;;
2896;SDS011;1458;49.728;9.228;2023-04-25T11:37:46;8.87;;;8.67;;
2896;SDS011;1458;49.728;9.228;2023-04-25T11:40:14;9.40;;;9.20;;
2896;SDS011;1458;49.728;9.228;2023-04-25T11:42:43;9.30;;;9.10;;
2896;SDS011;1458;49.728;9.228;2023-04-25T11:45:12;9.67;;;9.47;;
2896;SDS011;1458;49.728;9.228;2023-04-25T11:47:44;9.20;;;9.00;;
2896;SDS011;1458;49.728;9.228;2023-04-25T11:50:13;9.30;;;9.10;;
2896;SDS011;1458;49.728;9.228;2023-04-25T11:52:41;9.30;;;9.10;;
2896;SDS011;1458;49.728;9.228;2023-04-25T11:55:12;9.60;;;9.40;;
2896;SDS011;1458;49.728;9.228;2023-04-25T11:57:42;9.60;;;9.40;;
2896;SDS011;1458;49.728;9.228;2023-04-25T12:00:15;9.70;;;9.50;;
2896;SDS011;1458;49.728;9.228;2023-04-25T12:02:45;9.90;;;9.70;;
2896;SDS011;1458;49.728;9.228;2023-04-25T12:05:16;10.33;;;10.13;;
2896;SDS011;1458;49.728;9.228;2023-04-25T12:07:45;10.20;;;10.00;;
2896;SDS011;1458;49.728;9.228;2023-04-25T12:10:13;9.60;;;9.40;;
2896;SDS011;1458;49.728;9.228;2023-04-25T12:12:42;9.30;;;9.10;;
2896;SDS011;1458;49.728;9.228;2023-04-25T12:15:12;9.60;;;9.40;;
2896;SDS011;1458;49.728;9.228;2023-04-25T12:17:44;9.60;;;9.40;;
2896;SDS011;1458;49.728;9.228;2023-04-25T12:20:13;10.00;;;9.80;;
2896;SDS011;1458;49.728;9.228;2023-04-25T12:22:45;9.57;;;9.37;;
2896;SDS011;1458;49.728;9.228;2023-04-25T12:28:14;9.40;;;9.20;;
2896;SDS011;1458;49.728;9.228;2023-04-25T12:30:57;9.00;;;8.80;;
2896;SDS011;1458;49.728;9.228;2023-04-25T12:33:27;8.93;;;8.73;;
2896;SDS011;1458;49.728;9.228;2023-04-25T12:35:58;8.60;;;8.50;;
2896;SDS011;1458;49.728;9.228;2023-04-25T12:38:30;9.30;;;9.10;;
2896;SDS011;1458;49.728;9.228;2023-04-25T12:40:59;9.23;;;9.03;;
2896;SDS011;1458;49.728;9.228;2023-04-25T12:43:27;9.50;;;9.30;;
2896;SDS011;1458;49.728;9.228;2023-04-25T12:45:55;9.90;;;9.70;;
2896;SDS011;1458;49.728;9.228;2023-04-25T12:48:23;10.10;;;9.90;;
2896;SDS011;1458;49.728;9.228;2023-04-25T12:50:51;10.40;;;10.10;;
2896;SDS011;1458;49.728;9.228;2023-04-25T12:53:21;10.83;;;10.53;;
2896;SDS011;1458;49.728;9.228;2023-04-25T12:55:50;10.90;;;10.60;;
2896;SDS011;1458;49.728;9.228;2023-04-25T12:58:18;10.77;;;10.47;;
2896;SDS011;1458;49.728;9.228;2023-04-25T13:00:46;10.50;;;10.20;;
2896;SDS011;1458;49.728;9.228;2023-04-25T13:03:14;10.60;;;10.30;;
2896;SDS011;1458;49.728;9.228;2023-04-25T13:05:43;10.33;;;10.10;;
2896;SDS011;1458;49.728;9.228;2023-04-25T13:08:11;10.17;;;9.97;;
2896;SDS011;1458;49.728;9.228;2023-04-25T13:10:45;10.60;;;10.30;;
2896;SDS011;1458;49.728;9.228;2023-04-25T13:13:14;10.50;;;10.20;;
2896;SDS011;1458;49.728;9.228;2023-04-25T13:15:42;10.20;;;10.00;;
2896;SDS011;1458;49.728;9.228;2023-04-25T13:18:10;10.50;;;10.20;;
2896;SDS011;1458;49.728;9.228;2023-04-25T13:20:43;10.30;;;10.10;;
2896;SDS011;1458;49.728;9.228;2023-04-25T13:23:11;10.23;;;10.03;;
2896;SDS011;1458;49.728;9.228;2023-04-25T13:25:43;10.20;;;10.00;;
2896;SDS011;1458;49.728;9.228;2023-04-25T13:28:11;10.00;;;9.80;;
2896;SDS011;1458;49.728;9.228;2023-04-25T13:30:39;9.60;;;9.40;;
2896;SDS011;1458;49.728;9.228;2023-04-25T13:33:19;9.77;;;9.57;;
2896;SDS011;1458;49.728;9.228;2023-04-25T13:35:48;9.80;;;9.60;;
2896;SDS011;1458;49.728;9.228;2023-04-25T13:38:20;9.80;;;9.60;;
2896;SDS011;1458;49.728;9.228;2023-04-25T13:40:55;10.20;;;10.00;;
2896;SDS011;1458;49.728;9.228;2023-04-25T13:43:23;10.47;;;10.20;;
2896;SDS011;1458;49.728;9.228;2023-04-25T13:45:53;10.50;;;10.20;;
2896;SDS011;1458;49.728;9.228;2023-04-25T13:48:20;10.70;;;10.40;;
2896;SDS011;1458;49.728;9.228;2023-04-25T13:50:48;10.10;;;9.90;;
2896;SDS011;1458;49.728;9.228;2023-04-25T13:53:16;10.50;;;10.20;;
2896;SDS011;1458;49.728;9.228;2023-04-25T13:55:43;10.10;;;9.90;;
2896;SDS011;1458;49.728;9.228;2023-04-25T13:58:12;11.17;;;10.87;;
2896;SDS011;1458;49.728;9.228;2023-04-25T14:00:40;10.63;;;10.33;;
2896;SDS011;1458;49.728;9.228;2023-04-25T14:03:08;10.47;;;10.17;;
2896;SDS011;1458;49.728;9.228;2023-04-25T14:05:36;10.20;;;10.00;;
2896;SDS011;1458;49.728;9.228;2023-04-25T14:08:07;10.80;;;10.50;;
2896;SDS011;1458;49.728;9.228;2023-04-25T14:10:35;10.20;;;10.00;;
2896;SDS011;1458;49.728;9.228;2023-04-25T14:13:04;10.60;;;10.30;;
2896;SDS011;1458;49.728;9.228;2023-04-25T14:15:33;10.60;;;10.30;;
2896;SDS011;1458;49.728;9.228;2023-04-25T14:18:01;10.73;;;10.43;;
2896;SDS011;1458;49.728;9.228;2023-04-25T14:20:28;10.20;;;10.00;;
2896;SDS011;1458;49.728;9.228;2023-04-25T14:22:57;10.60;;;10.30;;
2896;SDS011;1458;49.728;9.228;2023-04-25T14:25:25;10.83;;;10.53;;
2896;SDS011;1458;49.728;9.228;2023-04-25T14:27:52;10.90;;;10.60;;
2896;SDS011;1458;49.728;9.228;2023-04-25T14:30:20;10.80;;;10.50;;
2896;SDS011;1458;49.728;9.228;2023-04-25T14:32:49;10.60;;;10.30;;
2896;SDS011;1458;49.728;9.228;2023-04-25T14:35:17;10.40;;;10.20;;
2896;SDS011;1458;49.728;9.228;2023-04-25T14:37:45;10.90;;;10.60;;
2896;SDS011;1458;49.728;9.228;2023-04-25T14:40:13;11.00;;;10.70;;
2896;SDS011;1458;49.728;9.228;2023-04-25T14:42:40;11.30;;;11.00;;
2896;SDS011;1458;49.728;9.228;2023-04-25T14:45:08;11.17;;;10.87;;
2896;SDS011;1458;49.728;9.228;2023-04-25T14:47:36;10.70;;;10.40;;
2896;SDS011;1458;49.728;9.228;2023-04-25T14:50:06;11.50;;;11.20;;
2896;SDS011;1458;49.728;9.228;2023-04-25T14:52:35;11.63;;;11.33;;
2896;SDS011;1458;49.728;9.228;2023-04-25T14:55:03;11.47;;;11.17;;
2896;SDS011;1458;49.728;9.228;2023-04-25T14:57:32;11.40;;;11.10;;
2896;SDS011;1458;49.728;9.228;2023-04-25T15:00:01;11.40;;;11.10;;
2896;SDS011;1458;49.728;9.228;2023-04-25T15:02:34;11.40;;;11.10;;
2896;SDS011;1458;49.728;9.228;2023-04-25T15:05:01;11.50;;;11.20;;
2896;SDS011;1458;49.728;9.228;2023-04-25T15:07:31;11.10;;;10.80;;
2896;SDS011;1458;49.728;9.228;2023-04-25T15:10:00;11.40;;;11.10;;
2896;SDS011;1458;49.728;9.228;2023-04-25T15:12:28;11.30;;;11.00;;
2896;SDS011;1458;49.728;9.228;2023-04-25T15:14:55;11.20;;;10.90;;
2896;SDS011;1458;49.728;9.228;2023-04-25T15:17:23;11.70;;;11.40;;
2896;SDS011;1458;49.728;9.228;2023-04-25T15:19:50;11.50;;;11.20;;
2896;SDS011;1458;49.728;9.228;2023-04-25T15:22:20;11.60;;;11.30;;
2896;SDS011;1458;49.728;9.228;2023-04-25T15:24:51;12.43;;;12.03;;
2896;SDS011;1458;49.728;9.228;2023-04-25T15:27:19;11.80;;;11.50;;
2896;SDS011;1458;49.728;9.228;2023-04-25T15:29:47;12.10;;;11.80;;
2896;SDS011;1458;49.728;9.228;2023-04-25T15:32:16;12.20;;;11.90;;
2896;SDS011;1458;49.728;9.228;2023-04-25T15:34:43;11.90;;;11.60;;
2896;SDS011;1458;49.728;9.228;2023-04-25T15:37:14;11.50;;;11.20;;
2896;SDS011;1458;49.728;9.228;2023-04-25T15:39:43;11.83;;;11.53;;
2896;SDS011;1458;49.728;9.228;2023-04-25T15:42:12;11.70;;;11.40;;
2896;SDS011;1458;49.728;9.228;2023-04-25T15:44:40;11.87;;;11.57;;
2896;SDS011;1458;49.728;9.228;2023-04-25T15:47:07;11.90;;;11.60;;
2896;SDS011;1458;49.728;9.228;2023-04-25T15:49:35;12.50;;;12.10;;
2896;SDS011;1458;49.728;9.228;2023-04-25T15:52:02;12.43;;;12.03;;
2896;SDS011;1458;49.728;9.228;2023-04-25T15:54:30;12.13;;;11.83;;